Aérodrome :
LOGIN :

S'inscrire | Disclaimer

   EN    FR    IT 

 










Légende :    VFR   VFR Marginal   IFR   IFR Intensif   IFR Très Intensif
Visi : 
Plafond : 
>= 8 km
>= 3000ft
5 à 8 km
1000 à 3000 ft
1500m à 5 km
500 à 1000 ft
800 à 1500m
200 à 500 ft
< 800m
< 200 ft
Symboles :   Orages  Brouillard  Fortes neiges  Fortes précipitations  Vent > 20 kt
SIGMETs :   Divers  Orages  Givrage  Turbulence  Onde Orograph.  Cendres Volcan.






- Altitude de l'aérodrome : 299 ft
- Code IATA : EDM


LFRI - La Roche Sur Yon - Les Ajoncs

DERNIER METAR :
  • 020530Z AUTO 01008KT 6000 NSC 00/M01 Q1016

METARs EXPIRÉS :
  • 020500Z AUTO 02008KT 7000 NSC 00/M01 Q1016
  • 020430Z AUTO 01008KT 7000 NSC 01/M01 Q1016
  • 020400Z AUTO 02007KT 8000 NSC 01/M01 Q1016
  • 020330Z AUTO 02007KT 9000 NSC 01/M01 Q1016
  • 020300Z AUTO 01009KT CAVOK 02/M00 Q1016

Prévision TAF périmée.



MET'MAP, la Météo Aéronautique d'un coup d'oeil ! - Copyright ORBIFLY Décembre 2007 - Disclaimer

ORBIFLY MET'MAP TEAM :

Programmation & Développement : Alexandra Zaïnal
Sur une idée originale de : Baudouin d'Aumeries
Assistance à la programmation : Marc-Olivier Méhu
Soutien technique & logistique : Manuel Goepfert

Contact : metmap@orbifly.com




SOURCES & CREDITS :

   NOAA